Flight Track Log - Related Links

Times and Time Zones

All times are in EDT time to prevent confusion due to time zone crossing. See the UAL594 flight status page for this flight to view local times or setup timezone preferences in your user account.

Time Position Orientation Groundspeed Altitude Reporting Facility
EDT Latitude Longitude Course Direction KTS MPH feet Rate Location/Type
Fri 09:11:40 AM 42.0167 -87.9667 270° West 192 221 2,700  Level Chicago TRACON
Fri 09:12:40 AM 42.0500 -88.0333 304° West 218 251 4,900 2,246 Climbing Chicago TRACON
Fri 09:13:00 AM 41.9667 -88.3270 270° West  Level FlightAware Approximate
Fri 09:14:00 AM 41.9667 -88.4694 270° West  Level FlightAware Approximate
Fri 09:14:47 AM 42.0547 -88.2042 272° West 238 274 9,700  Level Chicago Center
Fri 09:15:00 AM 41.9668 -88.6117 270° West  Level FlightAware Approximate
Fri 09:15:49 AM 42.0594 -88.3061 274° West 267 307 11,700  Level Chicago Center
Fri 09:16:00 AM 41.9667 -88.7540 270° West  Level FlightAware Approximate
Fri 09:16:51 AM 42.0683 -88.4475 275° West 313 360 14,000  Level Chicago Center
Fri 09:17:00 AM 41.9668 -88.8964 270° West  Level FlightAware Approximate
Fri 09:17:53 AM 42.0683 -88.5647 270° West 317 365 15,800  Level Chicago Center
Fri 09:18:55 AM 42.0603 -88.6850 265° West 324 373 18,600 2,293 Climbing Chicago Center
Fri 09:19:56 AM 42.0497 -88.8108 264° West 338 389 20,500 2,141 Climbing Chicago Center
Fri 09:21:00 AM 42.0187 -88.9570 254° West  Level FlightAware Approximate
Fri 09:22:00 AM 42.0533 -89.1044 254° West 371 427 25,200  Level Chicago Center
Fri 09:23:02 AM 42.0711 -89.2386 280° West 381 438 26,700 1,403 Climbing Chicago Center
Fri 09:24:04 AM 42.0889 -89.3803 280° West 385 443 28,100 1,355 Climbing Chicago Center
Fri 09:25:06 AM 42.1089 -89.5275 280° West 396 456 29,500 1,355 Climbing Chicago Center
Fri 09:26:08 AM 42.1325 -89.7086 280° West 419 482 30,900 1,065 Climbing Chicago Center
Fri 09:27:10 AM 42.1511 -89.8625 279° West 418 481 31,700 919 Climbing Chicago Center
Fri 09:28:12 AM 42.1703 -90.0353 279° West 434 499 32,800 1,113 Climbing Chicago Center
Fri 09:29:14 AM 42.1861 -90.1947 278° West 434 499 34,000 1,065 Climbing Chicago Center
Fri 09:30:16 AM 42.2325 -90.3467 292° West 443 510 35,000 488 Climbing Chicago Center
Fri 09:31:17 AM 42.2931 -90.4942 299° West 451 519 35,000  Level Chicago Center
Fri 09:32:19 AM 42.3525 -90.6400 299° West 447 514 35,000 435 Level Chicago Center
Fri 09:33:21 AM 42.4131 -90.7889 299° West 452 520 35,900 484 Climbing Chicago Center
Fri 09:34:23 AM 42.4778 -90.9600 297° West 431 496 36,000 48 Climbing Chicago Center
Fri 09:35:25 AM 42.4878 -91.1164 275° West 421 484 36,000  Level Chicago Center
Fri 09:36:27 AM 42.4933 -91.2731 273° West 416 479 36,000  Level Chicago Center
Fri 09:37:29 AM 42.4969 -91.4322 272° West 421 484 36,000  Level Chicago Center
Fri 09:38:31 AM 42.5008 -91.5914 272° West 421 484 36,000  Level Chicago Center
Fri 09:39:33 AM 42.5036 -91.7508 271° West 422 486 36,000  Level Chicago Center
Fri 09:40:35 AM 42.5072 -91.9103 272° West 421 484 36,000  Level Chicago Center
Fri 09:41:37 AM 42.5108 -92.1011 272° West 422 486 36,000  Level Chicago Center
Fri 09:42:27 AM 42.5114 -92.2303 270° West 423 487 36,000  Level Minneapolis Center
Fri 09:43:28 AM 42.5122 -92.3889 270° West 423 487 36,000  Level Minneapolis Center
Fri 09:44:30 AM 42.5142 -92.5478 271° West 424 488 36,000  Level Minneapolis Center
Fri 09:45:31 AM 42.5169 -92.7067 271° West 424 488 36,000  Level Minneapolis Center
Fri 09:46:33 AM 42.5186 -92.8656 271° West 424 488 36,000  Level Minneapolis Center
Fri 09:47:35 AM 42.5208 -93.0561 271° West 424 488 36,000  Level Minneapolis Center
Fri 09:48:36 AM 42.5225 -93.2136 271° West 421 484 36,000  Level Minneapolis Center
Fri 09:49:38 AM 42.5253 -93.3728 271° West 424 488 36,000  Level Minneapolis Center
Fri 09:50:39 AM 42.5261 -93.5308 270° West 424 488 36,000  Level Minneapolis Center
Fri 09:51:41 AM 42.5033 -93.6847 259° West 418 481 36,000  Level Minneapolis Center
Fri 09:52:43 AM 42.4856 -93.8417 261° West 423 487 36,000  Level Minneapolis Center
Fri 09:53:45 AM 42.4697 -93.9992 262° West 424 488 36,000  Level Minneapolis Center
Fri 09:54:46 AM 42.4492 -94.1881 262° West 426 490 36,000  Level Minneapolis Center
Fri 09:55:48 AM 42.4308 -94.3339 260° West 421 484 36,000  Level Minneapolis Center
Fri 09:56:49 AM 42.4108 -94.4933 260° West 427 491 36,000  Level Minneapolis Center
Fri 09:57:51 AM 42.3889 -94.6506 259° West 426 490 36,000  Level Minneapolis Center
Fri 09:58:52 AM 42.3636 -94.8403 260° West 427 491 36,000  Level Minneapolis Center
Fri 09:59:54 AM 42.3414 -94.9981 259° West 428 493 36,000  Level Minneapolis Center
Fri 10:00:55 AM 42.3200 -95.1553 260° West 425 489 36,000  Level Minneapolis Center
Fri 10:01:57 AM 42.2986 -95.3111 260° West 423 487 36,000  Level Minneapolis Center
Fri 10:02:59 AM 42.2781 -95.4647 260° West 418 481 36,000  Level Minneapolis Center
Fri 10:04:00 AM 42.2564 -95.6192 259° West 419 482 36,000  Level Minneapolis Center
Fri 10:05:02 AM 42.2342 -95.7681 259° West 408 470 36,000  Level Minneapolis Center
Fri 10:06:03 AM 42.2131 -95.9200 259° West 413 475 36,000  Level Minneapolis Center
Fri 10:07:05 AM 42.1856 -96.1006 258° West 411 473 36,000  Level Minneapolis Center
Fri 10:08:07 AM 42.1633 -96.2536 259° West 415 478 36,000  Level Minneapolis Center
Fri 10:09:08 AM 42.1408 -96.4061 259° West 417 480 36,000  Level Minneapolis Center
Fri 10:10:10 AM 42.1175 -96.5589 258° West 417 480 36,000  Level Minneapolis Center
Fri 10:11:11 AM 42.0933 -96.7119 258° West 420 483 36,000  Level Minneapolis Center
Fri 10:12:13 AM 42.0700 -96.8692 259° West 427 491 36,000 -242 Level Minneapolis Center
Fri 10:13:15 AM 42.0403 -97.0581 258° West 431 496 35,500 -683 Descending Minneapolis Center
Fri 10:14:16 AM 42.0161 -97.2142 258° West 430 495 34,600 -732 Descending Minneapolis Center
Fri 10:15:18 AM 41.9922 -97.3667 258° West 426 490 34,000 -290 Descending Minneapolis Center
Fri 10:16:20 AM 41.9669 -97.5150 257° West 419 482 34,000  Level Minneapolis Center
Fri 10:17:22 AM 41.9442 -97.6633 258° West 413 475 34,000  Level Minneapolis Center
Fri 10:18:23 AM 41.9211 -97.8150 259° West 413 475 34,000  Level Minneapolis Center
Fri 10:19:25 AM 41.8958 -97.9672 257° West 415 478 34,000  Level Minneapolis Center
Fri 10:20:27 AM 41.8656 -98.1481 257° West 415 478 34,000  Level Minneapolis Center
Fri 10:21:29 AM 41.8403 -98.2975 257° West 414 476 34,000  Level Minneapolis Center
Fri 10:22:30 AM 41.8147 -98.4456 257° West 411 473 34,000  Level Minneapolis Center
Fri 10:23:32 AM 41.7892 -98.5925 257° West 409 471 34,000  Level Minneapolis Center
Fri 10:24:34 AM 41.7639 -98.7375 257° West 406 467 34,000  Level Minneapolis Center
Fri 10:25:35 AM 41.7394 -98.8833 257° West 405 466 34,000  Level Minneapolis Center
Fri 10:26:37 AM 41.7156 -99.0278 258° West 402 463 34,000  Level Minneapolis Center
Fri 10:27:39 AM 41.6856 -99.2011 257° West 401 461 34,000  Level Minneapolis Center
Fri 10:28:08 AM 41.6753 -99.2608 257° West 401 461 34,000  Level Denver Center
Fri 10:29:10 AM 41.6492 -99.4086 257° West 408 470 34,000  Level Denver Center
Fri 10:30:12 AM 41.6222 -99.5564 256° West 410 472 34,000  Level Denver Center
Fri 10:31:14 AM 41.5950 -99.7039 256° West 411 473 34,000  Level Denver Center
Fri 10:32:16 AM 41.5622 -99.8819 256° West 414 476 34,000  Level Denver Center
Fri 10:33:17 AM 41.5364 -100.0233 256° West 412 474 34,000  Level Denver Center
Fri 10:34:19 AM 41.5061 -100.1883 256° West 411 473 34,000  Level Denver Center
Fri 10:35:21 AM 41.4789 -100.3306 256° West 414 476 34,000  Level Denver Center
Fri 10:36:23 AM 41.4475 -100.4967 256° West 415 478 34,000  Level Denver Center
Fri 10:37:25 AM 41.4178 -100.6433 255° West 425 489 34,000  Level Denver Center
Fri 10:38:27 AM 41.3678 -100.8117 248° West 438 504 34,000  Level Denver Center
Fri 10:39:29 AM 41.3239 -100.9561 248° West 443 510 34,000  Level Denver Center
Fri 10:40:31 AM 41.2731 -101.1239 248° West 442 509 34,000  Level Denver Center
Fri 10:41:33 AM 41.2303 -101.2678 248° West 440 506 34,000  Level Denver Center
Fri 10:42:35 AM 41.1800 -101.4347 248° West 439 505 34,000  Level Denver Center
Fri 10:43:37 AM 41.1369 -101.5772 248° West 437 503 34,000  Level Denver Center
Fri 10:44:39 AM 41.0925 -101.7192 247° West 437 503 34,000  Level Denver Center
Fri 10:45:41 AM 41.0419 -101.8828 248° West 432 497 34,000  Level Denver Center
Fri 10:46:42 AM 40.9967 -102.0264 247° West 440 506 34,000  Level Denver Center
Fri 10:47:44 AM 40.9447 -102.1925 248° West 438 504 34,000  Level Denver Center
Fri 10:48:46 AM 40.9000 -102.3367 248° West 443 510 34,000  Level Denver Center
Fri 10:49:48 AM 40.8467 -102.5050 247° West 444 511 34,000  Level Denver Center
Fri 10:50:50 AM 40.8006 -102.6481 247° West 444 511 34,000  Level Denver Center
Fri 10:51:52 AM 40.7478 -102.8144 247° West 441 507 34,000 -145 Level Denver Center
Fri 10:52:54 AM 40.7011 -102.9581 247° West 444 511 33,700 -1,548 Descending Denver Center
Fri 10:53:56 AM 40.6508 -103.1142 247° West 436 502 30,800 -2,565 Descending Denver Center
Fri 10:54:58 AM 40.6039 -103.2594 247° West 430 495 28,400 -2,226 Descending Denver Center
Fri 10:56:00 AM 40.5594 -103.3989 247° West 413 475 26,200 -2,129 Descending Denver Center
Fri 10:57:02 AM 40.5128 -103.5325 245° Southwest 400 460 24,000 -2,226 Descending Denver Center
Fri 10:58:04 AM 40.4633 -103.6817 246° West 378 435 21,600 -2,081 Descending Denver Center
Fri 10:59:06 AM 40.4233 -103.8014 246° West 370 426 19,700 -1,694 Descending Denver Center
Fri 11:00:08 AM 40.3839 -103.9258 247° West 345 397 18,100 -1,056 Descending Denver Center
Fri 11:01:11 AM 40.3561 -104.0256 250° West 280 322 17,500 -912 Descending Denver Center
Fri 11:02:13 AM 40.3433 -104.1228 260° West 281 323 16,200 -1,403 Descending Denver Center
Fri 11:03:15 AM 40.2967 -104.2208 238° Southwest 295 339 14,600 -1,306 Descending Denver Center
Fri 11:04:17 AM 40.2581 -104.3108 241° Southwest 286 329 13,500 -1,065 Descending Denver Center
Fri 11:05:19 AM 40.2372 -104.4031 254° West 243 280 12,400 -1,113 Descending Denver Center
Fri 11:06:21 AM 40.2050 -104.4828 242° Southwest 253 291 11,200 -1,161 Descending Denver Center
Fri 11:07:23 AM 40.1644 -104.5622 236° Southwest 243 280 10,000 -983 Descending Denver Center
Fri 11:08:17 AM 40.1167 -104.6000 211° Southwest 233 268 9,300 -684 Descending Denver TRACON
Fri 11:09:17 AM 40.0667 -104.6333 207° Southwest 197 227 8,700 -600 Descending Denver TRACON

Login

Don't have an account? Register now (free) for customized features, flight alerts, and more!